Terminal Aerodrome Forecast
Issued by NWS

Home | Current Version | Previous Version | Text Only | Print | Product List | Glossary On
Versions: 1 2 3 4 5 6 7 8 9 10 11 12
000
FTUS46 KSTO 312300
TAFRDD
TAF
KRDD 312327Z 0100/0124 VRB05KT P6SM SCT015 BKN050 OVC100
      TEMPO 0100/0104 -SHRA BKN015
     FM011100 VRB05KT P6SM VCSH BKN020 BKN040
      TEMPO 0112/0116 5SM -SHRA BKN011
     FM011900 19007KT P6SM VCSH SCT025 BKN050=

USA.gov is the U.S. government's official web portal to all federal, state and local government web resources and services.